METAR stanice u blizini

 

LYBE - Beograd / Surčin, Srbija
Ažurirano: 09/08/2020 08:00
Vedro
Vedro
 Pravac vetra Z
Vetar: Z 7 km/h
Temperatura: 22°C
Tačka rose: 21°C
Vlažnost: 94%
Pritisak: 1016 hPa
Pregled: Vedro
Vidljivost: greater than 10 km
2020/08/09 06:00 LYBE 090600Z 26004KT 210V280 CAVOK 22/21 Q1016 NOSIG
LYBT - Beograd / Batajnica, Srbija
Ažurirano: 09/08/2020 08:00
Vedro
Vedro
 Pravac vetra varies
Vetar: varies 4 km/h
Temperatura: 22°C
Tačka rose: 20°C
Vlažnost: 88%
Pritisak: 1016 hPa
Pregled: Vedro
Vidljivost: greater than 10 km
2020/08/09 06:00 LYBT 090600Z VRB02KT CAVOK 22/20 Q1016 NOSIG
LYVR - Vršac, Srbija
Ažurirano: 09/08/2020 08:00
Few Clouds
Few Clouds
 Pravac vetra JJI
Vetar: JJI 19 km/h
Temperatura: 24°C
Tačka rose: 19°C
Vlažnost: 74%
Pritisak: 1016 hPa
Oblaci: Few Clouds
Vidljivost: 10 km
Cloud details: Few Clouds 1006 m
2020/08/09 06:00 LYVR 090600Z 16010KT 140V210 9999 FEW033 24/19 Q1016
 
LYKV - Lađevci, Srbija
Ažurirano: 09/08/2020 08:00
Mostly Cloudy
Mostly Cloudy
 Pravac vetra JJZ
Vetar: JJZ 6 km/h
Temperatura: 20°C
Tačka rose: 20°C
Vlažnost: 100%
Pritisak: 1017 hPa
Oblaci: Mostly Cloudy
Vidljivost: 10 km
Cloud details: Partly Cloudy 152 m
Mostly Cloudy 1219 m
2020/08/09 06:00 LYKV 090600Z 21003KT 170V240 9999 SCT005 BKN040 20/20 Q1017 NOSIG
LYNI - Niš, Srbija
Ažurirano: 09/08/2020 08:00
Partly Cloudy
Partly Cloudy
 Pravac vetra varies
Vetar: varies 4 km/h
Temperatura: 19°C
Tačka rose: 18°C
Vlažnost: 94%
Pritisak: 1017 hPa
Oblaci: Partly Cloudy
Vidljivost: 10 km
Cloud details: Partly Cloudy 183 m
2020/08/09 06:00 LYNI 090600Z VRB02KT 9999 SCT006 19/18 Q1017 NOSIG
BKPR - Priština, Srbija
Ažurirano: 09/08/2020 08:00
Mostly Cloudy
Mostly Cloudy
 Pravac vetra SZ
Vetar: SZ 7 km/h
Temperatura: 19°C
Tačka rose: 14°C
Vlažnost: 73%
Pritisak: 1018 hPa
Oblaci: Mostly Cloudy
Vidljivost: 10 km
Cloud details: Few Clouds 914 m
Mostly Cloudy 1829 m
2020/08/09 06:00 BKPR 090600Z 32004KT 290V350 9999 FEW030 BKN060 19/14 Q1018 NOSIG
 
LHPP - Pecs / Pogany, Hungary
Ažurirano: 09/08/2020 07:45
Vedro
Vedro
 Pravac vetra SSZ
Vetar: SSZ 4 km/h
Temperatura: 25°C
Tačka rose: 20°C
Vlažnost: 74%
Pritisak: 1017 hPa
Pregled: Vedro
Vidljivost: greater than 10 km
2020/08/09 05:45 LHPP 090545Z 33002KT CAVOK 25/20 Q1017
LHUD - Szeged, Hungary
Ažurirano: 04/07/2019 01:45
NOT Current
Vedro
Vedro
 Pravac vetra S
Vetar: S 7 km/h
Temperatura: 18°C
Tačka rose: 13°C
Vlažnost: 73%
Pritisak: 1019 hPa
Pregled: Vedro
Vidljivost: greater than 10 km
2019/07/03 23:45 LHUD 032345Z 35004KT CAVOK 18/13 Q1019
LRTR - Timisoara, Romania
Ažurirano: 09/08/2020 08:00
Vedro
Vedro
 Pravac vetra IJI
Vetar: IJI 9 km/h
Temperatura: 22°C
Tačka rose: 19°C
Vlažnost: 83%
Pritisak: 1016 hPa
Pregled: Vedro
Vidljivost: greater than 10 km
2020/08/09 06:00 LRTR 090600Z 11005KT CAVOK 22/19 Q1016 NOSIG
 
LRCV - Craiova, Romania
Ažurirano: 09/08/2020 08:00
Few Clouds
Few Clouds
 Pravac vetra I
Vetar: I 11 km/h
Temperatura: 24°C
Tačka rose: 16°C
Vlažnost: 61%
Pritisak: 1016 hPa
Oblaci: Few Clouds
Vidljivost: 10 km
Cloud details: Few Clouds 1524 m
2020/08/09 06:00 LRCV 090600Z 10006KT 9999 FEW050CB 24/16 Q1016 R09/29//95
LBSF - Sofia, Bulgaria
Ažurirano: 09/08/2020 08:00
Partly Cloudy
Partly Cloudy
 Pravac vetra ZSZ
Vetar: ZSZ 11 km/h
Temperatura: 18°C
Tačka rose: 16°C
Vlažnost: 88%
Pritisak: 1017 hPa
Oblaci: Partly Cloudy
Vidljivost: 8 km
Cloud details: Few Clouds 213 m
Partly Cloudy 1829 m
2020/08/09 06:00 LBSF 090600Z 30006KT 8000 FEW007 SCT060 18/16 Q1017 NOSIG
LWSK - Skoplje, Makedonija
Ažurirano: 09/08/2020 08:00
Partly Cloudy
Partly Cloudy
 Pravac vetra S
Vetar: S 4 km/h
Temperatura: 20°C
Tačka rose: 18°C
Vlažnost: 88%
Pritisak: 1016 hPa
Oblaci: Partly Cloudy
Vidljivost: 10 km
Cloud details: Few Clouds 1829 m
Partly Cloudy 3048 m
2020/08/09 06:00 LWSK 090600Z 35002KT 9999 FEW060 SCT100 20/18 Q1016 NOSIG
 
LYPG - Podgorica, Crna Gora
Ažurirano: 09/08/2020 08:00
Mostly Cloudy
Mostly Cloudy
 Pravac vetra SI
Vetar: SI 9 km/h
Temperatura: 27°C
Heat Index: 27°C
Tačka rose: 13°C
Vlažnost: 42%
Pritisak: 1013 hPa
Oblaci: Mostly Cloudy
Vidljivost: 10 km
Cloud details: Partly Cloudy 1524 m
Mostly Cloudy 2743 m
2020/08/09 06:00 LYPG 090600Z 05005KT 9999 SCT050 BKN090 27/13 Q1013 NOSIG
LQSA - Sarajevo, Bosna i Hercegovina
Ažurirano: 09/08/2020 08:00
Mostly Cloudy
Mostly Cloudy
 Pravac vetra varies
Vetar: varies 2 km/h
Temperatura: 18°C
Tačka rose: 18°C
Vlažnost: 100%
Pritisak: 1019 hPa
Oblaci: Mostly Cloudy
Vidljivost: 6 km
Cloud details: Mostly Cloudy 457 m
2020/08/09 06:00 LQSA 090600Z VRB01KT 6000 BKN015 18/18 Q1019 NOSIG
LDOS - Osijek, Hrvatksa
Ažurirano: 09/08/2020 08:00
Vedro
Vedro
 Pravac vetra calm
Vetar: Tišina
Temperatura: 23°C
Tačka rose: 21°C
Vlažnost: 89%
Pritisak: 1016 hPa
Pregled: Vedro
Vidljivost: greater than 10 km
2020/08/09 06:00 LDOS 090600Z 00000KT CAVOK 23/21 Q1016